Time;durP1;ratioP1;P1;durP2;ratioP2;P2;SDS_P1;SDS_P2;PMS_P1;PMS_P2;Temp;Humidity;BMP_temperature;BMP_pressure;BME280_temperature;BME280_humidity;BME280_pressure;Samples;Min_cycle;Max_cycle;Signal;HPM_P1;HPM_P2
2021/12/28 00:02:18;;;;;;;6.85;6.32;;;;;;;;;;4871167;29;32395;-64
2021/12/28 00:04:46;;;;;;;6.20;5.60;;;;;;;;;;4871269;28;34246;-64
2021/12/28 00:07:14;;;;;;;7.43;6.28;;;;;;;;;;4860586;29;32278;-63
2021/12/28 00:09:42;;;;;;;6.35;5.75;;;;;;;;;;4849456;29;32292;-65
2021/12/28 00:12:12;;;;;;;6.10;5.60;;;;;;;;;;4849062;29;32499;-64
2021/12/28 00:14:49;;;;;;;6.88;6.18;;;;;;;;;;4848629;29;35102;-63
2021/12/28 00:20:02;;;;;;;6.22;5.40;;;;;;;;;;4848879;29;32427;-65
2021/12/28 00:22:30;;;;;;;6.40;5.80;;;;;;;;;;4849681;29;32499;-65
2021/12/28 00:24:58;;;;;;;7.45;5.70;;;;;;;;;;4849679;29;32300;-65
2021/12/28 00:27:27;;;;;;;6.18;5.57;;;;;;;;;;4848863;29;35223;-65
2021/12/28 00:29:55;;;;;;;6.03;5.53;;;;;;;;;;4849012;29;32419;-67
2021/12/28 00:32:23;;;;;;;5.97;5.47;;;;;;;;;;4849400;29;32421;-65
2021/12/28 00:34:51;;;;;;;6.90;6.18;;;;;;;;;;4848896;29;32278;-64
2021/12/28 00:37:19;;;;;;;9.05;5.80;;;;;;;;;;4849462;29;35397;-67
2021/12/28 00:39:47;;;;;;;6.68;5.85;;;;;;;;;;4867567;29;32422;-66
2021/12/28 00:42:15;;;;;;;5.85;5.40;;;;;;;;;;4857295;29;32410;-65
2021/12/28 00:44:44;;;;;;;6.97;6.38;;;;;;;;;;4849008;29;32390;-64
2021/12/28 00:47:12;;;;;;;7.75;6.30;;;;;;;;;;4849035;29;32393;-65
2021/12/28 00:49:40;;;;;;;5.65;5.15;;;;;;;;;;4843493;29;35438;-64
2021/12/28 00:52:09;;;;;;;6.70;6.20;;;;;;;;;;4867251;29;32603;-64
2021/12/28 00:54:36;;;;;;;8.85;6.00;;;;;;;;;;4860700;29;32371;-64
2021/12/28 00:57:06;;;;;;;7.35;5.88;;;;;;;;;;4867304;29;32422;-64
2021/12/28 00:59:34;;;;;;;5.90;5.40;;;;;;;;;;4867543;29;33902;-65
2021/12/28 01:02:04;;;;;;;12.20;5.80;;;;;;;;;;4867545;29;32304;-65
2021/12/28 01:04:32;;;;;;;6.68;5.97;;;;;;;;;;4867198;29;32308;-67
2021/12/28 01:07:00;;;;;;;7.95;5.88;;;;;;;;;;4867244;29;32291;-65
2021/12/28 01:09:30;;;;;;;6.40;5.78;;;;;;;;;;4867349;29;32358;-66
2021/12/28 01:11:59;;;;;;;7.05;5.60;;;;;;;;;;4867212;29;34707;-65
2021/12/28 01:14:28;;;;;;;7.15;6.45;;;;;;;;;;4867496;29;32248;-67
2021/12/28 01:16:56;;;;;;;6.20;5.70;;;;;;;;;;4867375;29;33276;-65
2021/12/28 01:19:26;;;;;;;5.97;5.38;;;;;;;;;;4865839;29;32360;-65
2021/12/28 01:21:54;;;;;;;8.05;5.88;;;;;;;;;;4867488;29;33962;-66
2021/12/28 01:24:24;;;;;;;7.65;6.15;;;;;;;;;;4867391;29;32456;-65
2021/12/28 01:26:51;;;;;;;7.45;5.45;;;;;;;;;;4866705;29;32465;-66
2021/12/28 01:29:19;;;;;;;6.57;5.97;;;;;;;;;;4867447;29;32606;-65
2021/12/28 01:31:47;;;;;;;9.60;5.78;;;;;;;;;;4865000;29;32391;-66
2021/12/28 01:34:15;;;;;;;6.22;5.72;;;;;;;;;;4862621;29;34034;-65
2021/12/28 01:36:45;;;;;;;6.43;5.82;;;;;;;;;;4862696;29;32478;-66
2021/12/28 01:39:13;;;;;;;6.47;5.88;;;;;;;;;;4866656;29;32286;-66
2021/12/28 01:41:41;;;;;;;6.32;5.82;;;;;;;;;;4866886;29;32336;-67
2021/12/28 01:44:12;;;;;;;6.57;6.07;;;;;;;;;;4866702;29;35737;-66
2021/12/28 01:46:40;;;;;;;6.05;5.45;;;;;;;;;;4867001;29;32585;-66
2021/12/28 01:49:10;;;;;;;7.30;6.03;;;;;;;;;;4865921;29;32246;-66
2021/12/28 01:51:39;;;;;;;6.95;5.80;;;;;;;;;;4867232;29;32418;-65
2021/12/28 01:54:08;;;;;;;7.07;6.35;;;;;;;;;;4866300;29;32710;-66
2021/12/28 01:56:41;;;;;;;5.90;5.30;;;;;;;;;;4853726;29;34762;-65
2021/12/28 01:59:10;;;;;;;6.82;5.93;;;;;;;;;;4867018;29;32458;-65
2021/12/28 02:01:39;;;;;;;7.07;5.63;;;;;;;;;;4866728;29;32423;-65
2021/12/28 02:04:15;;;;;;;6.25;5.65;;;;;;;;;;4865393;29;32485;-64
2021/12/28 02:06:42;;;;;;;6.13;5.63;;;;;;;;;;4866567;29;35854;-64
2021/12/28 02:09:12;;;;;;;6.40;5.82;;;;;;;;;;4865137;29;32490;-65
2021/12/28 02:11:41;;;;;;;11.77;6.45;;;;;;;;;;4865877;29;32374;-64
2021/12/28 02:14:10;;;;;;;6.85;6.25;;;;;;;;;;4866807;29;32373;-66
2021/12/28 02:16:41;;;;;;;6.45;5.85;;;;;;;;;;4866802;29;32271;-66
2021/12/28 02:19:12;;;;;;;6.40;5.88;;;;;;;;;;4865968;29;34854;-65
2021/12/28 02:21:41;;;;;;;6.32;5.80;;;;;;;;;;4865646;29;32343;-65
2021/12/28 02:24:10;;;;;;;5.50;5.07;;;;;;;;;;4865923;29;32617;-67
2021/12/28 02:26:39;;;;;;;10.55;5.65;;;;;;;;;;4866143;29;32323;-64
2021/12/28 02:29:07;;;;;;;7.00;6.18;;;;;;;;;;4850235;29;34579;-66
2021/12/28 02:31:36;;;;;;;6.55;5.82;;;;;;;;;;4859378;29;32484;-63
2021/12/28 02:34:05;;;;;;;6.50;5.70;;;;;;;;;;4856836;29;33677;-65
2021/12/28 02:36:33;;;;;;;7.15;6.45;;;;;;;;;;4847656;29;32257;-66
2021/12/28 02:39:03;;;;;;;6.05;5.53;;;;;;;;;;4847469;29;32194;-66
2021/12/28 02:41:31;;;;;;;9.23;6.68;;;;;;;;;;4854840;29;34516;-65
2021/12/28 02:44:04;;;;;;;6.55;5.88;;;;;;;;;;4866094;29;32552;-65
2021/12/28 02:46:32;;;;;;;6.50;5.90;;;;;;;;;;4866542;29;32361;-65
2021/12/28 02:49:00;;;;;;;5.88;5.35;;;;;;;;;;4859999;29;32431;-67
2021/12/28 02:51:28;;;;;;;6.63;6.10;;;;;;;;;;4854337;29;35071;-67
2021/12/28 02:53:56;;;;;;;6.78;6.28;;;;;;;;;;4853624;29;32511;-63
2021/12/28 02:56:26;;;;;;;9.23;5.93;;;;;;;;;;4853845;29;32478;-67
2021/12/28 02:58:55;;;;;;;6.68;6.05;;;;;;;;;;4855971;29;32346;-64
2021/12/28 03:01:25;;;;;;;6.85;6.18;;;;;;;;;;4852800;29;32407;-65
2021/12/28 03:03:56;;;;;;;6.30;5.70;;;;;;;;;;4856990;29;34986;-65
2021/12/28 03:06:25;;;;;;;6.70;6.03;;;;;;;;;;4853747;29;32450;-65
2021/12/28 03:08:56;;;;;;;8.48;6.32;;;;;;;;;;4854173;29;32365;-67
2021/12/28 03:11:27;;;;;;;7.93;6.35;;;;;;;;;;4854587;29;32230;-67
2021/12/28 03:13:57;;;;;;;6.63;5.93;;;;;;;;;;4852485;29;35587;-66
2021/12/28 03:16:27;;;;;;;7.03;6.43;;;;;;;;;;4856667;29;32503;-70
2021/12/28 03:18:55;;;;;;;7.03;6.43;;;;;;;;;;4854706;29;32461;-67
2021/12/28 03:21:25;;;;;;;6.47;5.88;;;;;;;;;;4846892;29;32378;-66
2021/12/28 03:23:54;;;;;;;7.97;6.68;;;;;;;;;;4846197;29;32680;-68
2021/12/28 03:26:22;;;;;;;7.50;5.60;;;;;;;;;;4844255;29;34593;-66
2021/12/28 03:28:52;;;;;;;6.22;5.70;;;;;;;;;;4843214;29;32392;-67
2021/12/28 03:31:23;;;;;;;6.10;5.60;;;;;;;;;;4847298;29;32541;-66
2021/12/28 03:33:53;;;;;;;7.07;6.43;;;;;;;;;;4847848;29;32404;-65
2021/12/28 03:36:23;;;;;;;7.47;6.67;;;;;;;;;;4847426;29;34815;-66
2021/12/28 03:38:51;;;;;;;6.85;6.25;;;;;;;;;;4846715;29;32439;-66
2021/12/28 03:41:22;;;;;;;6.45;5.95;;;;;;;;;;4847224;29;32265;-66
2021/12/28 03:43:55;;;;;;;7.45;6.22;;;;;;;;;;4850337;29;32315;-67
2021/12/28 03:46:25;;;;;;;5.47;5.07;;;;;;;;;;4849942;29;32276;-67
2021/12/28 03:48:53;;;;;;;6.82;6.22;;;;;;;;;;4849546;29;34527;-69
2021/12/28 03:51:21;;;;;;;6.00;5.60;;;;;;;;;;4848734;29;32505;-66
2021/12/28 03:53:50;;;;;;;6.45;5.93;;;;;;;;;;4848167;29;32486;-67
2021/12/28 03:56:19;;;;;;;6.32;5.82;;;;;;;;;;4848427;29;32322;-70
2021/12/28 03:58:49;;;;;;;6.15;5.45;;;;;;;;;;4846128;29;34990;-68
2021/12/28 04:01:22;;;;;;;6.35;5.72;;;;;;;;;;4849668;29;32255;-67
2021/12/28 04:03:51;;;;;;;6.05;5.60;;;;;;;;;;4849925;29;32358;-68
2021/12/28 04:06:20;;;;;;;6.13;5.63;;;;;;;;;;4850004;29;32380;-67
2021/12/28 04:08:49;;;;;;;6.45;5.85;;;;;;;;;;4849762;29;32540;-68
2021/12/28 04:11:26;;;;;;;9.40;6.75;;;;;;;;;;4849568;29;35513;-70
2021/12/28 04:13:59;;;;;;;7.30;6.03;;;;;;;;;;4849741;29;32345;-65
2021/12/28 04:16:29;;;;;;;6.38;5.78;;;;;;;;;;4849556;29;32473;-67
2021/12/28 04:18:57;;;;;;;6.38;5.88;;;;;;;;;;4849890;29;32417;-66
2021/12/28 04:21:25;;;;;;;6.43;5.88;;;;;;;;;;4849371;29;35481;-65
2021/12/28 04:23:54;;;;;;;7.43;6.47;;;;;;;;;;4849108;29;32703;-65
2021/12/28 04:26:22;;;;;;;6.70;5.75;;;;;;;;;;4849086;29;32480;-65
2021/12/28 04:28:50;;;;;;;8.48;5.78;;;;;;;;;;4849075;29;32302;-68
2021/12/28 04:31:18;;;;;;;5.90;5.50;;;;;;;;;;4849610;29;32414;-68
2021/12/28 04:33:47;;;;;;;12.80;6.35;;;;;;;;;;4849181;29;34727;-66
2021/12/28 04:36:18;;;;;;;6.35;5.72;;;;;;;;;;4849183;29;32231;-65
2021/12/28 04:38:48;;;;;;;6.93;6.03;;;;;;;;;;4849309;29;32300;-66
2021/12/28 04:41:16;;;;;;;6.30;5.85;;;;;;;;;;4849269;29;32396;-67
2021/12/28 04:43:46;;;;;;;7.07;6.38;;;;;;;;;;4849514;29;34591;-66
2021/12/28 04:46:14;;;;;;;6.43;5.85;;;;;;;;;;4849373;29;32138;-67
2021/12/28 04:48:42;;;;;;;6.13;5.63;;;;;;;;;;4849288;29;32309;-66
2021/12/28 04:51:11;;;;;;;7.57;6.80;;;;;;;;;;4848955;29;32340;-66
2021/12/28 04:53:39;;;;;;;6.43;5.78;;;;;;;;;;4848272;29;32396;-66
2021/12/28 04:56:07;;;;;;;6.70;6.00;;;;;;;;;;4848840;29;34539;-67
2021/12/28 04:58:35;;;;;;;6.63;6.03;;;;;;;;;;4848630;29;32474;-69
2021/12/28 05:01:03;;;;;;;6.43;5.93;;;;;;;;;;4849078;29;32387;-67
2021/12/28 05:03:31;;;;;;;7.57;5.82;;;;;;;;;;4849577;29;32364;-66
2021/12/28 05:05:59;;;;;;;6.60;6.03;;;;;;;;;;4849399;29;34010;-67
2021/12/28 05:08:28;;;;;;;7.47;6.70;;;;;;;;;;4849478;29;32713;-67
2021/12/28 05:10:57;;;;;;;6.35;5.75;;;;;;;;;;4849555;29;32840;-68
2021/12/28 05:13:25;;;;;;;7.38;6.68;;;;;;;;;;4848795;29;32331;-66
2021/12/28 05:15:53;;;;;;;6.85;6.18;;;;;;;;;;4848741;29;32602;-68
2021/12/28 05:18:22;;;;;;;7.25;5.47;;;;;;;;;;4848764;29;32494;-67
2021/12/28 05:20:50;;;;;;;6.00;5.25;;;;;;;;;;4848674;29;32316;-67
2021/12/28 05:23:18;;;;;;;6.45;5.82;;;;;;;;;;4848710;29;32394;-67
2021/12/28 05:25:47;;;;;;;6.00;5.50;;;;;;;;;;4849000;29;32380;-66
2021/12/28 05:28:15;;;;;;;6.30;5.80;;;;;;;;;;4849172;29;33963;-67
2021/12/28 05:30:43;;;;;;;6.80;6.30;;;;;;;;;;4848530;29;32372;-66
2021/12/28 05:33:11;;;;;;;8.15;5.45;;;;;;;;;;4852403;29;32355;-67
2021/12/28 05:35:39;;;;;;;6.43;5.82;;;;;;;;;;4867676;29;32320;-64
2021/12/28 05:38:07;;;;;;;6.43;5.93;;;;;;;;;;4858661;29;32381;-64
2021/12/28 05:40:35;;;;;;;6.97;6.35;;;;;;;;;;4848792;29;32553;-68
2021/12/28 05:43:04;;;;;;;7.30;6.70;;;;;;;;;;4848769;29;32681;-67
2021/12/28 05:45:33;;;;;;;6.60;6.00;;;;;;;;;;4848728;29;32406;-66
2021/12/28 05:48:00;;;;;;;7.82;5.85;;;;;;;;;;4856094;29;32494;-66
2021/12/28 05:50:28;;;;;;;6.07;5.55;;;;;;;;;;4866847;29;33941;-67
2021/12/28 05:52:56;;;;;;;6.43;5.93;;;;;;;;;;4866354;29;32602;-67
2021/12/28 05:55:24;;;;;;;6.50;5.90;;;;;;;;;;4866440;29;32435;-67
2021/12/28 05:57:52;;;;;;;6.70;6.13;;;;;;;;;;4867263;29;32099;-67
2021/12/28 06:00:22;;;;;;;6.55;5.97;;;;;;;;;;4867573;29;32430;-67
2021/12/28 06:02:50;;;;;;;6.68;5.18;;;;;;;;;;4866961;29;32123;-67
2021/12/28 06:05:18;;;;;;;6.43;5.82;;;;;;;;;;4866429;29;32400;-67
2021/12/28 06:07:46;;;;;;;5.60;5.20;;;;;;;;;;4867109;29;32375;-66
2021/12/28 06:10:15;;;;;;;7.43;5.97;;;;;;;;;;4861069;29;32360;-69
2021/12/28 06:12:43;;;;;;;6.30;5.80;;;;;;;;;;4848521;29;34786;-66
2021/12/28 06:15:12;;;;;;;6.38;5.78;;;;;;;;;;4848030;29;32712;-67
2021/12/28 06:17:41;;;;;;;7.15;6.50;;;;;;;;;;4848028;29;32351;-65
2021/12/28 06:20:11;;;;;;;6.22;5.72;;;;;;;;;;4848145;29;32454;-66
2021/12/28 06:22:39;;;;;;;6.47;5.97;;;;;;;;;;4848297;29;32313;-67
2021/12/28 06:25:08;;;;;;;7.70;5.80;;;;;;;;;;4848344;29;32315;-67
2021/12/28 06:27:36;;;;;;;6.80;6.20;;;;;;;;;;4848079;29;32563;-68
2021/12/28 06:30:05;;;;;;;11.88;6.82;;;;;;;;;;4848095;29;32380;-66
2021/12/28 06:32:33;;;;;;;7.05;6.35;;;;;;;;;;4848061;29;32252;-66
2021/12/28 06:35:03;;;;;;;6.55;5.57;;;;;;;;;;4847537;29;34056;-66
2021/12/28 06:37:31;;;;;;;9.30;7.00;;;;;;;;;;4848244;29;32360;-69
2021/12/28 06:40:00;;;;;;;6.32;5.68;;;;;;;;;;4847815;29;32416;-66
2021/12/28 06:42:27;;;;;;;6.40;5.90;;;;;;;;;;4847914;29;32548;-67
2021/12/28 06:44:56;;;;;;;6.80;6.20;;;;;;;;;;4847607;29;32307;-67
2021/12/28 06:47:23;;;;;;;8.43;6.38;;;;;;;;;;4847672;29;32146;-65
2021/12/28 06:49:51;;;;;;;8.25;5.85;;;;;;;;;;4847910;29;32390;-68
2021/12/28 06:52:21;;;;;;;7.80;7.03;;;;;;;;;;4847762;29;32896;-66
2021/12/28 06:54:49;;;;;;;8.75;6.30;;;;;;;;;;4847776;29;32379;-67
2021/12/28 06:57:17;;;;;;;8.70;6.43;;;;;;;;;;4846553;29;34020;-68
2021/12/28 06:59:45;;;;;;;7.60;6.90;;;;;;;;;;4847621;29;32157;-67
2021/12/28 07:02:15;;;;;;;6.97;6.40;;;;;;;;;;4847202;29;32447;-65
2021/12/28 07:04:43;;;;;;;6.80;6.20;;;;;;;;;;4847641;29;32344;-65
2021/12/28 07:07:12;;;;;;;7.85;6.93;;;;;;;;;;4847829;29;32313;-66
2021/12/28 07:09:42;;;;;;;6.28;5.78;;;;;;;;;;4847666;29;32408;-65
2021/12/28 07:12:11;;;;;;;7.28;6.68;;;;;;;;;;4847392;29;32131;-65
2021/12/28 07:14:39;;;;;;;7.60;6.85;;;;;;;;;;4847482;29;32143;-69
2021/12/28 07:17:07;;;;;;;9.40;6.15;;;;;;;;;;4849273;29;32470;-65
2021/12/28 07:19:35;;;;;;;7.30;6.55;;;;;;;;;;4850495;29;34101;-68
2021/12/28 07:22:04;;;;;;;8.93;6.32;;;;;;;;;;4849679;29;32359;-67
2021/12/28 07:24:32;;;;;;;8.00;6.95;;;;;;;;;;4849826;29;32526;-66
2021/12/28 07:27:01;;;;;;;9.30;5.90;;;;;;;;;;4850414;29;32284;-66
2021/12/28 07:29:29;;;;;;;8.93;6.68;;;;;;;;;;4857946;29;34206;-68
2021/12/28 07:31:57;;;;;;;6.93;6.32;;;;;;;;;;4868703;29;32370;-67
2021/12/28 07:34:25;;;;;;;6.78;6.22;;;;;;;;;;4868908;29;32213;-66
2021/12/28 07:36:53;;;;;;;6.85;6.25;;;;;;;;;;4868980;29;32287;-66
2021/12/28 07:39:21;;;;;;;7.88;7.13;;;;;;;;;;4869221;29;32342;-66
2021/12/28 07:41:49;;;;;;;7.50;6.75;;;;;;;;;;4868188;29;34319;-66
2021/12/28 07:44:18;;;;;;;7.18;6.57;;;;;;;;;;4868682;29;32420;-65
2021/12/28 07:46:46;;;;;;;7.25;6.65;;;;;;;;;;4868629;29;32371;-66
2021/12/28 07:49:14;;;;;;;7.38;6.68;;;;;;;;;;4869221;29;32351;-66
2021/12/28 07:51:42;;;;;;;7.30;6.68;;;;;;;;;;4868364;29;35241;-67
2021/12/28 07:54:10;;;;;;;7.20;6.57;;;;;;;;;;4867832;29;32172;-67
2021/12/28 07:56:38;;;;;;;7.50;5.70;;;;;;;;;;4868243;29;32571;-66
2021/12/28 07:59:07;;;;;;;6.97;6.47;;;;;;;;;;4868475;29;32341;-67
2021/12/28 08:01:37;;;;;;;7.40;6.70;;;;;;;;;;4868803;29;32523;-67
2021/12/28 08:04:05;;;;;;;9.27;6.53;;;;;;;;;;4868484;29;35227;-67
2021/12/28 08:06:34;;;;;;;10.90;6.85;;;;;;;;;;4867524;29;32498;-69
2021/12/28 08:09:02;;;;;;;8.48;6.80;;;;;;;;;;4868110;29;32280;-65
2021/12/28 08:11:30;;;;;;;7.97;6.20;;;;;;;;;;4850864;29;32507;-66
2021/12/28 08:13:58;;;;;;;7.28;6.45;;;;;;;;;;4847426;29;35198;-64
2021/12/28 08:16:26;;;;;;;7.55;6.95;;;;;;;;;;4848983;29;32088;-66
2021/12/28 08:18:55;;;;;;;6.88;6.32;;;;;;;;;;4849717;29;32517;-69
2021/12/28 08:21:23;;;;;;;6.97;6.28;;;;;;;;;;4849470;29;32450;-68
2021/12/28 08:23:51;;;;;;;8.10;6.68;;;;;;;;;;4849448;29;32511;-67
2021/12/28 08:26:19;;;;;;;7.55;6.85;;;;;;;;;;4849539;29;34200;-66
2021/12/28 08:28:47;;;;;;;7.65;6.95;;;;;;;;;;4849022;29;32273;-67
2021/12/28 08:31:15;;;;;;;7.15;6.45;;;;;;;;;;4849214;29;32807;-69
2021/12/28 08:33:43;;;;;;;7.70;6.25;;;;;;;;;;4849626;29;32392;-66
2021/12/28 08:36:12;;;;;;;7.88;7.28;;;;;;;;;;4849345;29;34529;-66
2021/12/28 08:38:43;;;;;;;10.52;6.10;;;;;;;;;;4849450;29;32356;-68
2021/12/28 08:41:12;;;;;;;7.43;6.72;;;;;;;;;;4848654;29;33638;-66
2021/12/28 08:43:40;;;;;;;6.78;6.28;;;;;;;;;;4849203;29;32288;-66
2021/12/28 08:46:08;;;;;;;8.10;7.28;;;;;;;;;;4849596;29;32433;-66
2021/12/28 08:48:36;;;;;;;7.95;7.28;;;;;;;;;;4856697;29;34520;-66
2021/12/28 08:51:04;;;;;;;6.85;6.22;;;;;;;;;;4867606;29;32364;-66
2021/12/28 08:53:33;;;;;;;7.82;7.22;;;;;;;;;;4852700;29;32357;-66
2021/12/28 08:56:01;;;;;;;8.77;7.25;;;;;;;;;;4848792;29;32358;-65
2021/12/28 08:58:29;;;;;;;8.15;7.43;;;;;;;;;;4848910;29;33923;-67
2021/12/28 09:00:57;;;;;;;7.90;7.20;;;;;;;;;;4849325;29;32347;-68
2021/12/28 09:03:25;;;;;;;7.88;7.10;;;;;;;;;;4849396;29;32354;-66
2021/12/28 09:05:53;;;;;;;7.78;7.15;;;;;;;;;;4849301;29;32300;-65
2021/12/28 09:08:21;;;;;;;7.88;7.13;;;;;;;;;;4848967;29;32429;-65
2021/12/28 09:10:51;;;;;;;9.07;7.53;;;;;;;;;;4848902;29;34007;-65
2021/12/28 09:13:19;;;;;;;10.85;7.45;;;;;;;;;;4848840;29;32470;-68
2021/12/28 09:15:48;;;;;;;7.50;6.78;;;;;;;;;;4848902;29;32405;-66
2021/12/28 09:18:16;;;;;;;7.60;6.80;;;;;;;;;;4848047;29;32557;-69
2021/12/28 09:20:45;;;;;;;7.63;6.93;;;;;;;;;;4847886;29;34049;-68
2021/12/28 09:23:14;;;;;;;7.95;7.35;;;;;;;;;;4847979;29;32304;-69
2021/12/28 09:25:42;;;;;;;8.93;7.70;;;;;;;;;;4848552;29;32542;-67
2021/12/28 09:28:12;;;;;;;10.77;7.50;;;;;;;;;;4848471;29;32116;-67
2021/12/28 09:30:43;;;;;;;8.40;7.70;;;;;;;;;;4848646;29;32478;-67
2021/12/28 09:33:11;;;;;;;11.97;7.57;;;;;;;;;;4848067;29;34681;-66
2021/12/28 09:35:39;;;;;;;7.43;6.78;;;;;;;;;;4857505;29;32375;-66
2021/12/28 09:38:07;;;;;;;8.10;7.40;;;;;;;;;;4859752;29;32336;-66
2021/12/28 09:40:37;;;;;;;8.63;7.93;;;;;;;;;;4847462;29;32201;-66
2021/12/28 09:43:07;;;;;;;9.13;6.78;;;;;;;;;;4848301;29;34463;-66
2021/12/28 09:45:37;;;;;;;9.07;6.75;;;;;;;;;;4848252;29;32476;-67
2021/12/28 09:48:06;;;;;;;9.13;7.32;;;;;;;;;;4848195;29;32746;-67
2021/12/28 09:50:35;;;;;;;7.70;6.95;;;;;;;;;;4848715;29;32705;-68
2021/12/28 09:53:04;;;;;;;9.85;6.85;;;;;;;;;;4847996;29;32413;-67
2021/12/28 09:55:33;;;;;;;8.82;7.10;;;;;;;;;;4848047;29;33932;-68
2021/12/28 09:58:01;;;;;;;8.00;7.30;;;;;;;;;;4848559;29;32533;-65
2021/12/28 10:00:29;;;;;;;8.32;7.53;;;;;;;;;;4848414;29;32292;-64
2021/12/28 10:02:59;;;;;;;9.60;6.72;;;;;;;;;;4848900;29;32291;-66
2021/12/28 10:05:29;;;;;;;8.50;7.68;;;;;;;;;;4848661;29;33949;-67
2021/12/28 10:08:00;;;;;;;9.68;7.85;;;;;;;;;;4848427;29;32408;-66
2021/12/28 10:10:31;;;;;;;8.60;6.97;;;;;;;;;;4848566;29;32386;-65
2021/12/28 10:13:02;;;;;;;7.75;7.07;;;;;;;;;;4848333;29;32425;-66
2021/12/28 10:15:34;;;;;;;7.63;7.07;;;;;;;;;;4848689;29;32417;-65
2021/12/28 10:18:07;;;;;;;8.52;7.65;;;;;;;;;;4848002;29;34522;-66
2021/12/28 10:20:38;;;;;;;7.72;6.90;;;;;;;;;;4848199;29;32448;-65
2021/12/28 10:23:10;;;;;;;12.02;7.47;;;;;;;;;;4848414;29;32312;-67
2021/12/28 10:25:41;;;;;;;8.02;7.28;;;;;;;;;;4847915;29;32599;-66
2021/12/28 10:28:12;;;;;;;8.45;7.50;;;;;;;;;;4847681;29;34581;-68
2021/12/28 10:30:43;;;;;;;9.57;7.38;;;;;;;;;;4847410;29;32428;-68
2021/12/28 10:33:15;;;;;;;7.95;7.28;;;;;;;;;;4847894;29;32328;-69
2021/12/28 10:35:47;;;;;;;8.60;7.63;;;;;;;;;;4848044;29;32397;-67
2021/12/28 10:38:19;;;;;;;8.15;7.45;;;;;;;;;;4848190;29;32079;-65
2021/12/28 10:40:49;;;;;;;9.23;7.65;;;;;;;;;;4847595;29;34588;-68
2021/12/28 10:43:19;;;;;;;8.27;7.47;;;;;;;;;;4847629;29;32466;-66
2021/12/28 10:45:50;;;;;;;8.60;6.40;;;;;;;;;;4847937;29;32486;-69
2021/12/28 10:48:22;;;;;;;7.63;6.75;;;;;;;;;;4847959;29;32194;-67
2021/12/28 10:50:54;;;;;;;11.50;7.22;;;;;;;;;;4847415;29;35511;-66
2021/12/28 10:53:33;;;;;;;7.72;7.03;;;;;;;;;;4847626;29;32398;-67
2021/12/28 10:56:02;;;;;;;8.40;7.65;;;;;;;;;;4848038;29;32103;-66
2021/12/28 10:58:39;;;;;;;8.98;7.70;;;;;;;;;;4848040;29;32364;-65
2021/12/28 11:01:12;;;;;;;10.27;7.80;;;;;;;;;;4847796;29;32434;-66
2021/12/28 11:03:43;;;;;;;7.82;7.10;;;;;;;;;;4847435;29;34155;-68
2021/12/28 11:06:18;;;;;;;8.63;7.75;;;;;;;;;;4848374;29;32686;-66
2021/12/28 11:08:51;;;;;;;8.18;7.38;;;;;;;;;;4847034;29;32290;-67
2021/12/28 11:11:24;;;;;;;7.30;6.70;;;;;;;;;;4847886;29;32373;-64
2021/12/28 11:13:56;;;;;;;8.50;7.50;;;;;;;;;;4847832;29;34140;-68
2021/12/28 11:16:26;;;;;;;7.88;7.18;;;;;;;;;;4847683;29;32281;-66
2021/12/28 11:18:57;;;;;;;7.07;6.47;;;;;;;;;;4847243;29;32311;-68
2021/12/28 11:21:28;;;;;;;7.85;7.15;;;;;;;;;;4847157;29;32391;-69
2021/12/28 11:24:01;;;;;;;8.02;7.32;;;;;;;;;;4847741;29;32450;-67
2021/12/28 11:26:32;;;;;;;9.60;6.93;;;;;;;;;;4847441;29;35407;-68
2021/12/28 11:29:04;;;;;;;8.50;7.60;;;;;;;;;;4847253;29;32562;-66
2021/12/28 11:31:36;;;;;;;11.10;7.63;;;;;;;;;;4846917;29;32171;-66
2021/12/28 11:34:11;;;;;;;8.60;7.75;;;;;;;;;;4847191;29;32518;-68
2021/12/28 11:36:44;;;;;;;7.88;7.18;;;;;;;;;;4847060;29;35811;-65
2021/12/28 11:39:15;;;;;;;7.55;6.82;;;;;;;;;;4847062;29;32709;-67
2021/12/28 11:41:44;;;;;;;8.70;7.95;;;;;;;;;;4851874;29;32269;-67
2021/12/28 11:44:13;;;;;;;8.77;8.02;;;;;;;;;;4864301;29;32399;-66
2021/12/28 11:46:42;;;;;;;7.93;7.28;;;;;;;;;;4866004;29;32256;-65
2021/12/28 11:49:13;;;;;;;8.02;7.32;;;;;;;;;;4865110;29;33954;-66
2021/12/28 11:51:43;;;;;;;7.55;6.95;;;;;;;;;;4865459;29;32359;-66
2021/12/28 11:54:14;;;;;;;8.55;7.78;;;;;;;;;;4864799;29;32521;-68
2021/12/28 11:56:45;;;;;;;10.35;8.38;;;;;;;;;;4865669;29;32398;-66
2021/12/28 11:59:18;;;;;;;8.00;7.40;;;;;;;;;;4864831;29;35392;-66
2021/12/28 12:02:00;;;;;;;8.18;7.47;;;;;;;;;;4865293;29;32445;-66
2021/12/28 12:04:49;;;;;;;8.13;7.45;;;;;;;;;;4867966;29;32402;-66
2021/12/28 12:07:37;;;;;;;9.45;8.38;;;;;;;;;;4868496;29;32128;-65
2021/12/28 12:10:30;;;;;;;8.95;8.02;;;;;;;;;;4868746;29;32417;-66
2021/12/28 12:13:20;;;;;;;8.50;7.65;;;;;;;;;;4868177;29;35514;-67
2021/12/28 12:15:53;;;;;;;8.55;7.78;;;;;;;;;;4864224;29;32387;-68
2021/12/28 12:18:26;;;;;;;12.02;8.00;;;;;;;;;;4867789;29;32363;-65
2021/12/28 12:21:00;;;;;;;12.35;7.85;;;;;;;;;;4868131;29;32327;-68
2021/12/28 12:23:31;;;;;;;9.20;7.70;;;;;;;;;;4868066;29;33939;-68
2021/12/28 12:26:07;;;;;;;9.45;8.55;;;;;;;;;;4868178;29;32316;-69
2021/12/28 12:28:42;;;;;;;9.45;6.90;;;;;;;;;;4867889;29;32232;-66
2021/12/28 12:31:20;;;;;;;8.20;7.47;;;;;;;;;;4867760;29;32357;-68
2021/12/28 12:33:48;;;;;;;13.05;7.70;;;;;;;;;;4867736;29;32474;-68
2021/12/28 12:36:30;;;;;;;7.57;6.97;;;;;;;;;;4867547;29;34519;-69
2021/12/28 12:38:59;;;;;;;11.25;7.95;;;;;;;;;;4867265;29;32353;-69
2021/12/28 12:41:47;;;;;;;9.38;8.10;;;;;;;;;;4864773;29;32415;-66
2021/12/28 12:44:20;;;;;;;7.93;7.13;;;;;;;;;;4849585;29;32301;-68
2021/12/28 12:46:49;;;;;;;9.63;7.85;;;;;;;;;;4849439;29;34534;-68
2021/12/28 12:49:29;;;;;;;8.85;7.97;;;;;;;;;;4848613;29;32257;-67
2021/12/28 12:52:04;;;;;;;12.82;6.93;;;;;;;;;;4849536;29;32398;-66
2021/12/28 12:54:45;;;;;;;9.20;8.23;;;;;;;;;;4848697;29;32408;-66
2021/12/28 12:57:23;;;;;;;10.38;8.30;;;;;;;;;;4849406;29;32280;-65
2021/12/28 13:00:12;;;;;;;9.18;7.90;;;;;;;;;;4848980;29;35519;-66
2021/12/28 13:02:40;;;;;;;8.50;7.68;;;;;;;;;;4848892;29;32430;-67
2021/12/28 13:05:16;;;;;;;10.43;7.55;;;;;;;;;;4849263;29;32322;-68
2021/12/28 13:07:46;;;;;;;9.00;8.10;;;;;;;;;;4849242;29;32395;-67
2021/12/28 13:10:19;;;;;;;8.57;7.65;;;;;;;;;;4848502;29;35549;-69
2021/12/28 13:12:54;;;;;;;10.68;7.40;;;;;;;;;;4849085;29;32295;-67
2021/12/28 13:15:25;;;;;;;9.55;7.88;;;;;;;;;;4848931;29;32457;-68
2021/12/28 13:17:53;;;;;;;9.15;7.63;;;;;;;;;;4848775;29;32292;-69
2021/12/28 13:20:23;;;;;;;9.73;7.88;;;;;;;;;;4848979;29;32340;-69
2021/12/28 13:22:56;;;;;;;9.38;8.07;;;;;;;;;;4848327;29;35131;-67
2021/12/28 13:25:30;;;;;;;8.50;7.80;;;;;;;;;;4848806;29;32378;-67
2021/12/28 13:27:59;;;;;;;13.60;8.45;;;;;;;;;;4849225;29;32402;-66
2021/12/28 13:30:32;;;;;;;8.82;8.02;;;;;;;;;;4849183;29;32340;-69
2021/12/28 13:33:00;;;;;;;9.05;8.15;;;;;;;;;;4848979;29;34130;-67
2021/12/28 13:35:30;;;;;;;9.88;8.57;;;;;;;;;;4848945;29;32525;-67
2021/12/28 13:38:02;;;;;;;11.45;8.77;;;;;;;;;;4848497;29;32724;-68
2021/12/28 13:40:31;;;;;;;;;;;;;;;;;;4849258;29;32326;-66
2021/12/28 13:43:13;;;;;;;9.10;8.20;;;;;;;;;;4843180;29;32382;-66
2021/12/28 13:45:45;;;;;;;8.73;8.02;;;;;;;;;;4852961;29;33911;-67
2021/12/28 13:48:18;;;;;;;9.63;8.63;;;;;;;;;;4852266;29;32921;-68
2021/12/28 13:50:50;;;;;;;15.38;8.07;;;;;;;;;;4856381;29;32340;-67
2021/12/28 13:53:21;;;;;;;9.73;7.88;;;;;;;;;;4853110;29;32372;-68
2021/12/28 13:55:54;;;;;;;11.85;8.15;;;;;;;;;;4852683;29;35474;-67
2021/12/28 13:58:29;;;;;;;14.48;7.57;;;;;;;;;;4856646;29;32409;-67
2021/12/28 14:01:01;;;;;;;12.90;8.23;;;;;;;;;;4856799;29;32266;-67
2021/12/28 14:03:29;;;;;;;;;;;;;;;;;;4850861;29;32296;-69
2021/12/28 14:05:57;;;;;;;8.27;7.47;;;;;;;;;;4856774;29;32479;-66
2021/12/28 14:08:27;;;;;;;8.15;7.45;;;;;;;;;;4853443;29;34712;-68
2021/12/28 14:10:57;;;;;;;9.13;7.70;;;;;;;;;;4854213;29;32525;-67
2021/12/28 14:13:27;;;;;;;8.53;7.57;;;;;;;;;;4851459;29;32324;-68
2021/12/28 14:16:01;;;;;;;8.93;8.02;;;;;;;;;;4858104;29;32367;-67
2021/12/28 14:18:40;;;;;;;10.50;7.65;;;;;;;;;;4854403;29;34965;-68
2021/12/28 14:21:15;;;;;;;9.13;8.23;;;;;;;;;;4858505;29;32695;-68
2021/12/28 14:23:52;;;;;;;9.20;8.30;;;;;;;;;;4853468;29;32426;-69
2021/12/28 14:26:24;;;;;;;12.70;7.72;;;;;;;;;;4852035;29;32596;-68
2021/12/28 14:28:56;;;;;;;;;;;;;;;;;;4855279;29;32373;-65
2021/12/28 14:31:27;;;;;;;8.55;7.07;;;;;;;;;;4854893;29;35204;-68
2021/12/28 14:33:57;;;;;;;8.10;7.05;;;;;;;;;;4861216;29;32267;-68
2021/12/28 14:36:34;;;;;;;10.48;6.65;;;;;;;;;;4852693;29;32514;-69
2021/12/28 14:39:19;;;;;;;7.93;7.22;;;;;;;;;;4854271;29;32106;-68
2021/12/28 14:41:50;;;;;;;9.65;7.57;;;;;;;;;;4854973;29;34512;-67
2021/12/28 14:44:25;;;;;;;9.30;8.18;;;;;;;;;;4852915;29;32385;-68
2021/12/28 14:46:55;;;;;;;10.98;7.75;;;;;;;;;;4844984;29;32797;-70
2021/12/28 14:49:30;;;;;;;8.18;7.47;;;;;;;;;;4854917;29;32256;-69
2021/12/28 14:52:12;;;;;;;8.30;7.55;;;;;;;;;;4853150;29;32812;-69
2021/12/28 14:55:07;;;;;;;12.70;7.53;;;;;;;;;;4856619;29;33984;-67
2021/12/28 14:57:38;;;;;;;9.38;7.97;;;;;;;;;;4857402;29;32475;-66
2021/12/28 15:00:14;;;;;;;11.10;8.43;;;;;;;;;;4855018;29;32411;-66
2021/12/28 15:02:55;;;;;;;8.55;7.72;;;;;;;;;;4850184;29;32388;-69
2021/12/28 15:05:27;;;;;;;9.77;8.43;;;;;;;;;;4852886;29;34553;-67